^^
Station Historical Data
Daily Summary for October 8, 2017 Units:  Both    English   Metric
« Previous Day
Next Day »
Daily Weekly Monthly Yearly Custom
  High: Low: Average:
Temperature: TemperatureF °F /  -17.8 °C 48.4 °F /  9.1 °C 65.5 °F /  18.6 °C
Dew Point: DewpointF °F /  -17.8 °C -4.9 °F /  -20.5 °C 14.3 °F /  -9.8 °C
Humidity: Humidity% 4% 16%
Wind Speed: WindSpeedMPHmph /  0km/h - 2.4mph /  3.9km/h
Wind Gust: WindSpeedGustMPHmph /  0km/h - -
Wind- - West
Pressure: PressureIn in /  0 hPa 29.66 in /  1004.3 hPa -
Precipitation: 0.00 in /  0 mm    
Historical Graphs
 
 
Tabular Data for October 8, 2017
Time Temperature Dew Point Pressure Wind Wind Speed Wind Gust Humidity Rainfall Rate (Hourly) solar Conditions
TemperatureF °F /  -17.8 °C DewpointF °F /  -17.8 °C PressureInin /  0hPa Calm     Humidity% HourlyPrecipInin /  0mm SolarRadiationWatts/m^2 W/m2 Conditions
00:03 63.7 °F /  17.6 °C 18.0 °F /  -7.8 °C 29.83in /  1010hPa Calm   2.0mph /  3.2km/h 17% 0.00in /  0mm 0.0 W/m2
00:09 63.7 °F /  17.6 °C 18.0 °F /  -7.8 °C 29.83in /  1010hPa NNE 2.0mph /  3.2km/h 3.0mph /  4.8km/h 17% 0.00in /  0mm 0.0 W/m2
00:14 63.5 °F /  17.5 °C 19.2 °F /  -7.1 °C 29.81in /  1009.4hPa Calm     18% 0.00in /  0mm 0.0 W/m2
00:24 63.3 °F /  17.4 °C 19.0 °F /  -7.2 °C 29.81in /  1009.4hPa Calm   1.0mph /  1.6km/h 18% 0.00in /  0mm 0.0 W/m2
00:29 63.1 °F /  17.3 °C 18.9 °F /  -7.3 °C 29.81in /  1009.4hPa Calm     18% 0.00in /  0mm 0.0 W/m2
00:34 63.0 °F /  17.2 °C 20.1 °F /  -6.6 °C 29.81in /  1009.4hPa Calm     19% 0.00in /  0mm 0.0 W/m2
00:39 62.6 °F /  17 °C 19.8 °F /  -6.8 °C 29.81in /  1009.4hPa Calm     19% 0.00in /  0mm 0.0 W/m2
00:44 62.2 °F /  16.8 °C 19.4 °F /  -7 °C 29.81in /  1009.4hPa Calm   1.0mph /  1.6km/h 19% 0.00in /  0mm 0.0 W/m2
00:49 62.1 °F /  16.7 °C 19.2 °F /  -7.1 °C 29.80in /  1009hPa Calm     19% 0.00in /  0mm 0.0 W/m2
00:54 61.7 °F /  16.5 °C 19.0 °F /  -7.2 °C 29.80in /  1009hPa Calm     19% 0.00in /  0mm 0.0 W/m2
01:05 61.2 °F /  16.2 °C 19.8 °F /  -6.8 °C 29.80in /  1009hPa Calm     20% 0.00in /  0mm 0.0 W/m2
01:10 60.6 °F /  15.9 °C 19.4 °F /  -7 °C 29.79in /  1008.7hPa Calm   1.0mph /  1.6km/h 20% 0.00in /  0mm 0.0 W/m2
01:15 60.3 °F /  15.7 °C 19.0 °F /  -7.2 °C 29.80in /  1009hPa Calm     20% 0.00in /  0mm 0.0 W/m2
01:20 59.7 °F /  15.4 °C 18.5 °F /  -7.5 °C 29.80in /  1009hPa Calm     20% 0.00in /  0mm 0.0 W/m2
01:25 59.5 °F /  15.3 °C 19.6 °F /  -6.9 °C 29.79in /  1008.7hPa Calm     21% 0.00in /  0mm 0.0 W/m2
01:30 59.2 °F /  15.1 °C 18.1 °F /  -7.7 °C 29.79in /  1008.7hPa Calm     20% 0.00in /  0mm 0.0 W/m2
01:36 58.6 °F /  14.8 °C 17.6 °F /  -8 °C 29.79in /  1008.7hPa Calm     20% 0.00in /  0mm 0.0 W/m2
01:41 58.3 °F /  14.6 °C 18.5 °F /  -7.5 °C 29.78in /  1008.4hPa Calm     21% 0.00in /  0mm 0.0 W/m2
01:46 57.9 °F /  14.4 °C 18.1 °F /  -7.7 °C 29.78in /  1008.4hPa Calm     21% 0.00in /  0mm 0.0 W/m2
01:51 57.6 °F /  14.2 °C 18.0 °F /  -7.8 °C 29.78in /  1008.4hPa Calm     21% 0.00in /  0mm 0.0 W/m2
01:56 57.4 °F /  14.1 °C 18.9 °F /  -7.3 °C 29.77in /  1008hPa Calm     22% 0.00in /  0mm 0.0 W/m2
02:01 57.0 °F /  13.9 °C 18.5 °F /  -7.5 °C 29.77in /  1008hPa Calm     22% 0.00in /  0mm 0.0 W/m2
02:06 56.8 °F /  13.8 °C 18.3 °F /  -7.6 °C 29.77in /  1008hPa Calm     22% 0.00in /  0mm 0.0 W/m2
02:11 56.7 °F /  13.7 °C 18.3 °F /  -7.6 °C 29.77in /  1008hPa Calm     22% 0.00in /  0mm 0.0 W/m2
02:16 56.1 °F /  13.4 °C 18.9 °F /  -7.3 °C 29.77in /  1008hPa Calm     23% 0.00in /  0mm 0.0 W/m2
02:21 55.9 °F /  13.3 °C 18.7 °F /  -7.4 °C 29.77in /  1008hPa Calm     23% 0.00in /  0mm 0.0 W/m2
02:37 55.0 °F /  12.8 °C 18.9 °F /  -7.3 °C 29.76in /  1007.7hPa Calm     24% 0.00in /  0mm 0.0 W/m2
02:42 54.9 °F /  12.7 °C 17.8 °F /  -7.9 °C 29.75in /  1007.3hPa Calm     23% 0.00in /  0mm 0.0 W/m2
02:48 54.3 °F /  12.4 °C 18.3 °F /  -7.6 °C 29.75in /  1007.3hPa Calm     24% 0.00in /  0mm 0.0 W/m2
02:53 54.1 °F /  12.3 °C 18.1 °F /  -7.7 °C 29.75in /  1007.3hPa Calm     24% 0.00in /  0mm 0.0 W/m2
02:58 53.8 °F /  12.1 °C 17.8 °F /  -7.9 °C 29.75in /  1007.3hPa Calm     24% 0.00in /  0mm 0.0 W/m2
03:03 53.4 °F /  11.9 °C 17.6 °F /  -8 °C 29.75in /  1007.3hPa Calm     24% 0.00in /  0mm 0.0 W/m2
03:08 53.2 °F /  11.8 °C 17.4 °F /  -8.1 °C 29.75in /  1007.3hPa Calm     24% 0.00in /  0mm 0.0 W/m2
03:14 53.1 °F /  11.7 °C 18.1 °F /  -7.7 °C 29.75in /  1007.3hPa Calm     25% 0.00in /  0mm 0.0 W/m2
03:19 52.9 °F /  11.6 °C 17.1 °F /  -8.3 °C 29.75in /  1007.3hPa Calm     24% 0.00in /  0mm 0.0 W/m2
03:24 52.5 °F /  11.4 °C 17.8 °F /  -7.9 °C 29.75in /  1007.3hPa Calm     25% 0.00in /  0mm 0.0 W/m2
03:29 52.3 °F /  11.3 °C 17.6 °F /  -8 °C 29.74in /  1007hPa Calm     25% 0.00in /  0mm 0.0 W/m2
03:34 52.0 °F /  11.1 °C 17.2 °F /  -8.2 °C 29.74in /  1007hPa Calm     25% 0.00in /  0mm 0.0 W/m2
03:39 51.8 °F /  11 °C 17.1 °F /  -8.3 °C 29.74in /  1007hPa Calm     25% 0.00in /  0mm 0.0 W/m2
03:44 51.6 °F /  10.9 °C 16.9 °F /  -8.4 °C 29.74in /  1007hPa Calm     25% 0.00in /  0mm 0.0 W/m2
03:49 51.4 °F /  10.8 °C 17.6 °F /  -8 °C 29.74in /  1007hPa Calm     26% 0.00in /  0mm 0.0 W/m2
03:54 51.3 °F /  10.7 °C 16.7 °F /  -8.5 °C 29.73in /  1006.7hPa Calm     25% 0.00in /  0mm 0.0 W/m2
04:00 51.1 °F /  10.6 °C 16.5 °F /  -8.6 °C 29.73in /  1006.7hPa Calm     25% 0.00in /  0mm 0.0 W/m2
04:05 50.9 °F /  10.5 °C 16.3 °F /  -8.7 °C 29.73in /  1006.7hPa Calm     25% 0.00in /  0mm 0.0 W/m2
04:10 50.7 °F /  10.4 °C 15.3 °F /  -9.3 °C 29.73in /  1006.7hPa Calm     24% 0.00in /  0mm 0.0 W/m2
04:15 50.7 °F /  10.4 °C 15.3 °F /  -9.3 °C 29.74in /  1007hPa Calm     24% 0.00in /  0mm 0.0 W/m2
04:20 50.5 °F /  10.3 °C 16.0 °F /  -8.9 °C 29.74in /  1007hPa Calm     25% 0.00in /  0mm 0.0 W/m2
04:25 50.4 °F /  10.2 °C 14.9 °F /  -9.5 °C 29.74in /  1007hPa Calm   1.0mph /  1.6km/h 24% 0.00in /  0mm 0.0 W/m2
04:30 50.4 °F /  10.2 °C 14.0 °F /  -10 °C 29.73in /  1006.7hPa Calm   1.0mph /  1.6km/h 23% 0.00in /  0mm 0.0 W/m2
04:35 50.5 °F /  10.3 °C 13.1 °F /  -10.5 °C 29.73in /  1006.7hPa Calm     22% 0.00in /  0mm 0.0 W/m2
04:40 50.5 °F /  10.3 °C 13.1 °F /  -10.5 °C 29.73in /  1006.7hPa Calm   2.0mph /  3.2km/h 22% 0.00in /  0mm 0.0 W/m2
04:46 50.5 °F /  10.3 °C 13.1 °F /  -10.5 °C 29.73in /  1006.7hPa Calm   1.0mph /  1.6km/h 22% 0.00in /  0mm 0.0 W/m2
04:51 50.7 °F /  10.4 °C 13.3 °F /  -10.4 °C 29.73in /  1006.7hPa Calm     22% 0.00in /  0mm 0.0 W/m2
04:56 50.7 °F /  10.4 °C 14.2 °F /  -9.9 °C 29.73in /  1006.7hPa Calm     23% 0.00in /  0mm 0.0 W/m2
05:01 50.5 °F /  10.3 °C 14.2 °F /  -9.9 °C 29.74in /  1007hPa Calm     23% 0.00in /  0mm 0.0 W/m2
05:13 50.0 °F /  10 °C 13.6 °F /  -10.2 °C 29.73in /  1006.7hPa Calm     23% 0.00in /  0mm 0.0 W/m2
05:18 49.8 °F /  9.9 °C 13.5 °F /  -10.3 °C 29.73in /  1006.7hPa Calm     23% 0.00in /  0mm 0.0 W/m2
05:24 49.5 °F /  9.7 °C 13.1 °F /  -10.5 °C 29.73in /  1006.7hPa Calm     23% 0.00in /  0mm 0.0 W/m2
05:29 49.3 °F /  9.6 °C 14.0 °F /  -10 °C 29.73in /  1006.7hPa Calm     24% 0.00in /  0mm 0.0 W/m2
05:34 48.9 °F /  9.4 °C 12.7 °F /  -10.7 °C 29.73in /  1006.7hPa Calm     23% 0.00in /  0mm 0.0 W/m2
05:39 48.7 °F /  9.3 °C 12.6 °F /  -10.8 °C 29.73in /  1006.7hPa Calm     23% 0.00in /  0mm 0.0 W/m2
05:44 48.6 °F /  9.2 °C 12.4 °F /  -10.9 °C 29.73in /  1006.7hPa Calm     23% 0.00in /  0mm 0.0 W/m2
05:49 48.4 °F /  9.1 °C 12.2 °F /  -11 °C 29.73in /  1006.7hPa Calm     23% 0.00in /  0mm 0.0 W/m2
05:54 48.4 °F /  9.1 °C 11.3 °F /  -11.5 °C 29.73in /  1006.7hPa Calm     22% 0.00in /  0mm 0.0 W/m2
05:59 48.4 °F /  9.1 °C 10.2 °F /  -12.1 °C 29.74in /  1007hPa Calm     21% 0.00in /  0mm 0.0 W/m2
06:05 48.4 °F /  9.1 °C 9.1 °F /  -12.7 °C 29.74in /  1007hPa Calm   2.0mph /  3.2km/h 20% 0.00in /  0mm 0.0 W/m2
06:10 48.4 °F /  9.1 °C 9.1 °F /  -12.7 °C 29.74in /  1007hPa Calm     20% 0.00in /  0mm 0.0 W/m2
06:15 48.6 °F /  9.2 °C 8.1 °F /  -13.3 °C 29.74in /  1007hPa Calm   2.0mph /  3.2km/h 19% 0.00in /  0mm 0.0 W/m2
06:20 48.7 °F /  9.3 °C 9.5 °F /  -12.5 °C 29.74in /  1007hPa Calm     20% 0.00in /  0mm 0.0 W/m2
06:25 48.7 °F /  9.3 °C 7.2 °F /  -13.8 °C 29.74in /  1007hPa Calm   2.0mph /  3.2km/h 18% 0.00in /  0mm 0.0 W/m2
06:30 48.9 °F /  9.4 °C 7.2 °F /  -13.8 °C 29.74in /  1007hPa Calm   1.0mph /  1.6km/h 18% 0.00in /  0mm 5.0 W/m2
06:35 49.1 °F /  9.5 °C 7.3 °F /  -13.7 °C 29.74in /  1007hPa Calm     18% 0.00in /  0mm 7.0 W/m2
06:40 49.3 °F /  9.6 °C 8.8 °F /  -12.9 °C 29.74in /  1007hPa Calm     19% 0.00in /  0mm 11.0 W/m2
06:46 49.1 °F /  9.5 °C 7.3 °F /  -13.7 °C 29.74in /  1007hPa Calm     18% 0.00in /  0mm 12.0 W/m2
06:51 48.9 °F /  9.4 °C 7.2 °F /  -13.8 °C 29.74in /  1007hPa Calm   2.0mph /  3.2km/h 18% 0.00in /  0mm 14.0 W/m2
06:56 49.1 °F /  9.5 °C 8.6 °F /  -13 °C 29.75in /  1007.3hPa Calm     19% 0.00in /  0mm 16.0 W/m2
07:01 49.3 °F /  9.6 °C 7.5 °F /  -13.6 °C 29.75in /  1007.3hPa NE 0.9mph /  1.4km/h 1.0mph /  1.6km/h 18% 0.00in /  0mm 18.0 W/m2
07:25 51.3 °F /  10.7 °C 9.1 °F /  -12.7 °C 29.75in /  1007.3hPa Calm   -999.0mph /  -1607.7km/h 18% 0.00in /  0mm 23.0 W/m2
07:30 52.0 °F /  11.1 °C 8.4 °F /  -13.1 °C 29.76in /  1007.7hPa Calm     17% 0.00in /  0mm 26.0 W/m2
07:36 52.5 °F /  11.4 °C 9.0 °F /  -12.8 °C 29.76in /  1007.7hPa Calm   -999.0mph /  -1607.7km/h 17% 0.00in /  0mm 30.0 W/m2
07:42 53.1 °F /  11.7 °C 8.1 °F /  -13.3 °C 29.76in /  1007.7hPa Calm   2.0mph /  3.2km/h 16% 0.00in /  0mm 30.0 W/m2
07:47 53.8 °F /  12.1 °C 7.2 °F /  -13.8 °C 29.76in /  1007.7hPa Calm     15% 0.00in /  0mm 32.0 W/m2
07:52 54.5 °F /  12.5 °C 7.7 °F /  -13.5 °C 29.76in /  1007.7hPa Calm     15% 0.00in /  0mm 32.0 W/m2
07:57 55.2 °F /  12.9 °C 8.4 °F /  -13.1 °C 29.76in /  1007.7hPa Calm     15% 0.00in /  0mm 32.0 W/m2
08:08 56.8 °F /  13.8 °C 4.8 °F /  -15.1 °C 29.76in /  1007.7hPa Calm   1.0mph /  1.6km/h 12% 0.00in /  0mm 32.0 W/m2
08:13 58.3 °F /  14.6 °C 1.9 °F /  -16.7 °C 29.76in /  1007.7hPa Calm     10% 0.00in /  0mm 33.0 W/m2
08:19 59.2 °F /  15.1 °C 2.7 °F /  -16.3 °C 29.76in /  1007.7hPa NNW 0.9mph /  1.4km/h 1.0mph /  1.6km/h 10% 0.00in /  0mm 33.0 W/m2
08:24 60.3 °F /  15.7 °C 1.2 °F /  -17.1 °C 29.75in /  1007.3hPa Calm     9% 0.00in /  0mm 40.0 W/m2
08:29 61.0 °F /  16.1 °C 1.8 °F /  -16.8 °C 29.76in /  1007.7hPa Calm   1.0mph /  1.6km/h 9% 0.00in /  0mm 46.0 W/m2
08:34 61.7 °F /  16.5 °C 2.3 °F /  -16.5 °C 29.76in /  1007.7hPa Calm   3.0mph /  4.8km/h 9% 0.00in /  0mm 53.0 W/m2
08:39 62.4 °F /  16.9 °C 2.8 °F /  -16.2 °C 29.76in /  1007.7hPa WNW 0.9mph /  1.4km/h 2.0mph /  3.2km/h 9% 0.00in /  0mm 56.0 W/m2
08:44 63.1 °F /  17.3 °C 3.4 °F /  -15.9 °C 29.76in /  1007.7hPa Calm   2.0mph /  3.2km/h 9% 0.00in /  0mm 186.0 W/m2
08:49 64.0 °F /  17.8 °C 4.1 °F /  -15.5 °C 29.76in /  1007.7hPa Calm   3.0mph /  4.8km/h 9% 0.00in /  0mm 255.0 W/m2
08:54 64.6 °F /  18.1 °C 1.9 °F /  -16.7 °C 29.76in /  1007.7hPa West 0.9mph /  1.4km/h 4.0mph /  6.4km/h 8% 0.00in /  0mm 497.0 W/m2
08:59 65.1 °F /  18.4 °C 2.3 °F /  -16.5 °C 29.75in /  1007.3hPa NNW 0.9mph /  1.4km/h 1.0mph /  1.6km/h 8% 0.00in /  0mm 578.0 W/m2
09:04 65.7 °F /  18.7 °C 5.2 °F /  -14.9 °C 29.75in /  1007.3hPa Calm     9% 0.00in /  0mm 596.0 W/m2
09:10 66.0 °F /  18.9 °C 3.0 °F /  -16.1 °C 29.75in /  1007.3hPa Calm   1.0mph /  1.6km/h 8% 0.00in /  0mm 612.0 W/m2
09:20 67.3 °F /  19.6 °C 1.0 °F /  -17.2 °C 29.75in /  1007.3hPa WSW 0.9mph /  1.4km/h 3.0mph /  4.8km/h 7% 0.00in /  0mm 650.0 W/m2
09:25 67.8 °F /  19.9 °C 1.4 °F /  -17 °C 29.75in /  1007.3hPa Calm   4.0mph /  6.4km/h 7% 0.00in /  0mm 666.0 W/m2
09:30 69.3 °F /  20.7 °C 2.5 °F /  -16.4 °C 29.75in /  1007.3hPa NW 2.0mph /  3.2km/h 6.0mph /  9.7km/h 7% 0.00in /  0mm 684.0 W/m2
09:35 70.3 °F /  21.3 °C 0.0 °F /  -17.8 °C 29.75in /  1007.3hPa Calm   8.0mph /  12.9km/h 6% 0.00in /  0mm 701.0 W/m2
09:40 71.1 °F /  21.7 °C 0.5 °F /  -17.5 °C 29.75in /  1007.3hPa Calm   6.0mph /  9.7km/h 6% 0.00in /  0mm 715.0 W/m2
09:45 71.1 °F /  21.7 °C 0.5 °F /  -17.5 °C 29.75in /  1007.3hPa NNW 4.0mph /  6.4km/h 11.0mph /  17.7km/h 6% 0.00in /  0mm 733.0 W/m2
09:50 71.8 °F /  22.1 °C 1.0 °F /  -17.2 °C 29.76in /  1007.7hPa Calm   4.0mph /  6.4km/h 6% 0.00in /  0mm 747.0 W/m2
09:55 72.1 °F /  22.3 °C 1.2 °F /  -17.1 °C 29.75in /  1007.3hPa WNW 0.9mph /  1.4km/h 5.0mph /  8km/h 6% 0.00in /  0mm 763.0 W/m2
10:01 72.7 °F /  22.6 °C 1.8 °F /  -16.8 °C 29.75in /  1007.3hPa WNW 2.0mph /  3.2km/h 5.0mph /  8km/h 6% 0.00in /  0mm 780.0 W/m2
10:06 73.0 °F /  22.8 °C 1.9 °F /  -16.7 °C 29.75in /  1007.3hPa Calm   9.0mph /  14.5km/h 6% 0.00in /  0mm 795.0 W/m2
10:11 73.6 °F /  23.1 °C 2.3 °F /  -16.5 °C 29.75in /  1007.3hPa North 2.9mph /  4.7km/h 3.0mph /  4.8km/h 6% 0.00in /  0mm 802.0 W/m2
10:16 74.1 °F /  23.4 °C -1.1 °F /  -18.4 °C 29.75in /  1007.3hPa WNW 4.9mph /  7.9km/h 9.0mph /  14.5km/h 5% 0.00in /  0mm 823.0 W/m2
10:21 74.8 °F /  23.8 °C -0.6 °F /  -18.1 °C 29.75in /  1007.3hPa NNW 2.0mph /  3.2km/h 7.0mph /  11.3km/h 5% 0.00in /  0mm 835.0 W/m2
10:26 75.4 °F /  24.1 °C -4.9 °F /  -20.5 °C 29.75in /  1007.3hPa WNW 2.9mph /  4.7km/h 10.0mph /  16.1km/h 4% 0.00in /  0mm 849.0 W/m2
10:31 75.7 °F /  24.3 °C 0.0 °F /  -17.8 °C 29.75in /  1007.3hPa NNW 4.9mph /  7.9km/h 11.0mph /  17.7km/h 5% 0.00in /  0mm 860.0 W/m2
10:36 76.3 °F /  24.6 °C -4.4 °F /  -20.2 °C 29.75in /  1007.3hPa NNW 0.9mph /  1.4km/h 9.0mph /  14.5km/h 4% 0.00in /  0mm 875.0 W/m2
10:41 76.1 °F /  24.5 °C -4.5 °F /  -20.3 °C 29.75in /  1007.3hPa NNW 2.9mph /  4.7km/h 8.0mph /  12.9km/h 4% 0.00in /  0mm 889.0 W/m2
10:46 76.5 °F /  24.7 °C 0.5 °F /  -17.5 °C 29.75in /  1007.3hPa North 4.9mph /  7.9km/h 7.0mph /  11.3km/h 5% 0.00in /  0mm 900.0 W/m2
10:52 76.8 °F /  24.9 °C -4.0 °F /  -20 °C 29.75in /  1007.3hPa NW 0.9mph /  1.4km/h 13.0mph /  20.9km/h 4% 0.00in /  0mm 909.0 W/m2
10:58 77.5 °F /  25.3 °C 1.2 °F /  -17.1 °C 29.74in /  1007hPa WNW 2.9mph /  4.7km/h 6.0mph /  9.7km/h 5% 0.00in /  0mm 925.0 W/m2
11:08 78.1 °F /  25.6 °C 1.6 °F /  -16.9 °C 29.74in /  1007hPa WNW 0.9mph /  1.4km/h 13.0mph /  20.9km/h 5% 0.00in /  0mm 939.0 W/m2
11:13 78.4 °F /  25.8 °C 1.9 °F /  -16.7 °C 29.74in /  1007hPa NNW 8.9mph /  14.3km/h 9.0mph /  14.5km/h 5% 0.00in /  0mm 944.0 W/m2
11:18 78.3 °F /  25.7 °C 1.8 °F /  -16.8 °C 29.73in /  1006.7hPa NW 8.1mph /  13km/h 10.0mph /  16.1km/h 5% 0.00in /  0mm 953.0 W/m2
11:23 78.1 °F /  25.6 °C 5.5 °F /  -14.7 °C 29.73in /  1006.7hPa WNW 2.0mph /  3.2km/h 8.0mph /  12.9km/h 6% 0.00in /  0mm 963.0 W/m2
11:28 78.4 °F /  25.8 °C 5.9 °F /  -14.5 °C 29.74in /  1007hPa NW 2.9mph /  4.7km/h 10.0mph /  16.1km/h 6% 0.00in /  0mm 967.0 W/m2
11:33 78.6 °F /  25.9 °C 9.3 °F /  -12.6 °C 29.73in /  1006.7hPa NNW 2.9mph /  4.7km/h 8.0mph /  12.9km/h 7% 0.00in /  0mm 969.0 W/m2
11:38 78.6 °F /  25.9 °C 9.3 °F /  -12.6 °C 29.73in /  1006.7hPa WSW 2.9mph /  4.7km/h 11.0mph /  17.7km/h 7% 0.00in /  0mm 976.0 W/m2
11:44 78.8 °F /  26 °C 12.6 °F /  -10.8 °C 29.73in /  1006.7hPa WSW 4.9mph /  7.9km/h 17.0mph /  27.4km/h 8% 0.00in /  0mm 981.0 W/m2
11:49 78.6 °F /  25.9 °C 9.3 °F /  -12.6 °C 29.73in /  1006.7hPa WNW 8.1mph /  13km/h 10.0mph /  16.1km/h 7% 0.00in /  0mm 990.0 W/m2
11:54 79.0 °F /  26.1 °C 12.6 °F /  -10.8 °C 29.73in /  1006.7hPa WNW 6.0mph /  9.7km/h 15.0mph /  24.1km/h 8% 0.00in /  0mm 990.0 W/m2
11:59 79.2 °F /  26.2 °C 9.9 °F /  -12.3 °C 29.72in /  1006.3hPa WNW 8.1mph /  13km/h 16.0mph /  25.7km/h 7% 0.00in /  0mm 993.0 W/m2
12:04 79.3 °F /  26.3 °C 12.9 °F /  -10.6 °C 29.72in /  1006.3hPa West 6.9mph /  11.1km/h 11.0mph /  17.7km/h 8% 0.00in /  0mm 997.0 W/m2
12:09 79.5 °F /  26.4 °C 13.1 °F /  -10.5 °C 29.72in /  1006.3hPa West 4.9mph /  7.9km/h 6.0mph /  9.7km/h 8% 0.00in /  0mm 1005.0 W/m2
12:14 79.7 °F /  26.5 °C 10.2 °F /  -12.1 °C 29.72in /  1006.3hPa WNW 2.9mph /  4.7km/h 17.0mph /  27.4km/h 7% 0.00in /  0mm 1005.0 W/m2
12:19 79.7 °F /  26.5 °C 10.2 °F /  -12.1 °C 29.72in /  1006.3hPa WNW 4.0mph /  6.4km/h 16.0mph /  25.7km/h 7% 0.00in /  0mm 1009.0 W/m2
12:24 79.3 °F /  26.3 °C 12.9 °F /  -10.6 °C 29.72in /  1006.3hPa WNW 8.1mph /  13km/h 16.0mph /  25.7km/h 8% 0.00in /  0mm 1009.0 W/m2
12:30 79.2 °F /  26.2 °C 9.9 °F /  -12.3 °C 29.72in /  1006.3hPa WSW 12.1mph /  19.5km/h 22.0mph /  35.4km/h 7% 0.00in /  0mm 1009.0 W/m2
12:35 78.6 °F /  25.9 °C 12.4 °F /  -10.9 °C 29.71in /  1006hPa SW 6.0mph /  9.7km/h 13.0mph /  20.9km/h 8% 0.00in /  0mm 1014.0 W/m2
12:40 78.6 °F /  25.9 °C 12.4 °F /  -10.9 °C 29.71in /  1006hPa West 11.0mph /  17.7km/h 20.0mph /  32.2km/h 8% 0.00in /  0mm 1011.0 W/m2
12:45 79.3 °F /  26.3 °C 15.6 °F /  -9.1 °C 29.71in /  1006hPa West 0.9mph /  1.4km/h 9.0mph /  14.5km/h 9% 0.00in /  0mm 1004.0 W/m2
12:50 80.1 °F /  26.7 °C 16.2 °F /  -8.8 °C 29.72in /  1006.3hPa WNW 4.9mph /  7.9km/h 13.0mph /  20.9km/h 9% 0.00in /  0mm 1005.0 W/m2
12:55 79.5 °F /  26.4 °C 15.8 °F /  -9 °C 29.71in /  1006hPa NNW 4.9mph /  7.9km/h 18.0mph /  29km/h 9% 0.00in /  0mm 1007.0 W/m2
13:00 79.5 °F /  26.4 °C 15.8 °F /  -9 °C 29.71in /  1006hPa West 17.9mph /  28.8km/h 22.0mph /  35.4km/h 9% 0.00in /  0mm 1000.0 W/m2
13:05 79.9 °F /  26.6 °C 16.0 °F /  -8.9 °C 29.70in /  1005.6hPa WNW 8.9mph /  14.3km/h 18.0mph /  29km/h 9% 0.00in /  0mm 1000.0 W/m2
13:11 79.9 °F /  26.6 °C 16.0 °F /  -8.9 °C 29.70in /  1005.6hPa NW 6.9mph /  11.1km/h 20.0mph /  32.2km/h 9% 0.00in /  0mm 995.0 W/m2
13:16 79.5 °F /  26.4 °C 15.8 °F /  -9 °C 29.70in /  1005.6hPa WNW 14.1mph /  22.7km/h 25.0mph /  40.2km/h 9% 0.00in /  0mm 976.0 W/m2
13:21 79.3 °F /  26.3 °C 15.6 °F /  -9.1 °C 29.70in /  1005.6hPa NW 2.0mph /  3.2km/h 10.0mph /  16.1km/h 9% 0.00in /  0mm 981.0 W/m2
13:26 80.1 °F /  26.7 °C 18.5 °F /  -7.5 °C 29.70in /  1005.6hPa WNW 2.9mph /  4.7km/h 11.0mph /  17.7km/h 10% 0.00in /  0mm 970.0 W/m2
13:31 80.4 °F /  26.9 °C 16.3 °F /  -8.7 °C 29.70in /  1005.6hPa SW 4.9mph /  7.9km/h 16.0mph /  25.7km/h 9% 0.00in /  0mm 970.0 W/m2
13:36 80.8 °F /  27.1 °C 19.2 °F /  -7.1 °C 29.70in /  1005.6hPa NW 2.9mph /  4.7km/h 8.0mph /  12.9km/h 10% 0.00in /  0mm 969.0 W/m2
13:41 80.8 °F /  27.1 °C 16.7 °F /  -8.5 °C 29.70in /  1005.6hPa West 8.1mph /  13km/h 22.0mph /  35.4km/h 9% 0.00in /  0mm 956.0 W/m2
13:46 81.0 °F /  27.2 °C 16.9 °F /  -8.4 °C 29.70in /  1005.6hPa WSW 8.1mph /  13km/h 16.0mph /  25.7km/h 9% 0.00in /  0mm 944.0 W/m2
13:51 81.0 °F /  27.2 °C 16.9 °F /  -8.4 °C 29.69in /  1005.3hPa WNW 2.0mph /  3.2km/h 14.0mph /  22.5km/h 9% 0.00in /  0mm 940.0 W/m2
13:57 81.0 °F /  27.2 °C 16.9 °F /  -8.4 °C 29.69in /  1005.3hPa Calm   13.0mph /  20.9km/h 9% 0.00in /  0mm 926.0 W/m2
14:02 81.1 °F /  27.3 °C 19.4 °F /  -7 °C 29.69in /  1005.3hPa West 0.9mph /  1.4km/h 13.0mph /  20.9km/h 10% 0.00in /  0mm 923.0 W/m2
14:07 81.3 °F /  27.4 °C 17.1 °F /  -8.3 °C 29.69in /  1005.3hPa West 0.9mph /  1.4km/h 11.0mph /  17.7km/h 9% 0.00in /  0mm 912.0 W/m2
14:12 81.0 °F /  27.2 °C 16.9 °F /  -8.4 °C 29.69in /  1005.3hPa WSW 16.1mph /  25.9km/h 27.0mph /  43.5km/h 9% 0.00in /  0mm 905.0 W/m2
14:17 80.1 °F /  26.7 °C 18.5 °F /  -7.5 °C 29.69in /  1005.3hPa West 8.1mph /  13km/h 15.0mph /  24.1km/h 10% 0.00in /  0mm 891.0 W/m2
14:22 80.2 °F /  26.8 °C 18.7 °F /  -7.4 °C 29.69in /  1005.3hPa WSW 13.0mph /  20.9km/h 16.0mph /  25.7km/h 10% 0.00in /  0mm 868.0 W/m2
14:27 81.1 °F /  27.3 °C 16.9 °F /  -8.4 °C 29.69in /  1005.3hPa West 2.9mph /  4.7km/h 13.0mph /  20.9km/h 9% 0.00in /  0mm 877.0 W/m2
14:32 81.0 °F /  27.2 °C 16.9 °F /  -8.4 °C 29.68in /  1005hPa West 6.9mph /  11.1km/h 11.0mph /  17.7km/h 9% 0.00in /  0mm 858.0 W/m2
14:38 81.1 °F /  27.3 °C 16.9 °F /  -8.4 °C 29.68in /  1005hPa WNW 2.9mph /  4.7km/h 14.0mph /  22.5km/h 9% 0.00in /  0mm 849.0 W/m2
14:43 81.7 °F /  27.6 °C 17.4 °F /  -8.1 °C 29.68in /  1005hPa West 2.9mph /  4.7km/h 9.0mph /  14.5km/h 9% 0.00in /  0mm 838.0 W/m2
14:48 81.3 °F /  27.4 °C 17.1 °F /  -8.3 °C 29.68in /  1005hPa WNW 8.9mph /  14.3km/h 23.0mph /  37km/h 9% 0.00in /  0mm 821.0 W/m2
14:53 80.2 °F /  26.8 °C 18.7 °F /  -7.4 °C 29.68in /  1005hPa WSW 14.1mph /  22.7km/h 22.0mph /  35.4km/h 10% 0.00in /  0mm 807.0 W/m2
14:58 79.5 °F /  26.4 °C 18.1 °F /  -7.7 °C 29.68in /  1005hPa SW 6.9mph /  11.1km/h 25.0mph /  40.2km/h 10% 0.00in /  0mm 802.0 W/m2
15:03 79.2 °F /  26.2 °C 15.4 °F /  -9.2 °C 29.67in /  1004.6hPa West 2.0mph /  3.2km/h 17.0mph /  27.4km/h 9% 0.00in /  0mm 786.0 W/m2
15:08 79.9 °F /  26.6 °C 18.5 °F /  -7.5 °C 29.67in /  1004.6hPa WSW 17.0mph /  27.4km/h 18.0mph /  29km/h 10% 0.00in /  0mm 770.0 W/m2
15:13 80.1 °F /  26.7 °C 18.5 °F /  -7.5 °C 29.67in /  1004.6hPa West 4.9mph /  7.9km/h 22.0mph /  35.4km/h 10% 0.00in /  0mm 752.0 W/m2
15:19 80.2 °F /  26.8 °C 16.3 °F /  -8.7 °C 29.67in /  1004.6hPa WSW 12.1mph /  19.5km/h 20.0mph /  32.2km/h 9% 0.00in /  0mm 738.0 W/m2
15:24 79.5 °F /  26.4 °C 15.8 °F /  -9 °C 29.67in /  1004.6hPa WNW 4.9mph /  7.9km/h 21.0mph /  33.8km/h 9% 0.00in /  0mm 724.0 W/m2
15:29 79.3 °F /  26.3 °C 18.0 °F /  -7.8 °C 29.68in /  1005hPa West 10.1mph /  16.3km/h 17.0mph /  27.4km/h 10% 0.00in /  0mm 708.0 W/m2
15:34 79.3 °F /  26.3 °C 15.6 °F /  -9.1 °C 29.67in /  1004.6hPa NW 11.0mph /  17.7km/h 18.0mph /  29km/h 9% 0.00in /  0mm 696.0 W/m2
15:39 79.5 °F /  26.4 °C 15.8 °F /  -9 °C 29.67in /  1004.6hPa NW 6.9mph /  11.1km/h 14.0mph /  22.5km/h 9% 0.00in /  0mm 679.0 W/m2
15:44 79.3 °F /  26.3 °C 18.0 °F /  -7.8 °C 29.67in /  1004.6hPa West 8.9mph /  14.3km/h 18.0mph /  29km/h 10% 0.00in /  0mm 661.0 W/m2
15:50 79.3 °F /  26.3 °C 15.6 °F /  -9.1 °C 29.67in /  1004.6hPa WNW 2.9mph /  4.7km/h 21.0mph /  33.8km/h 9% 0.00in /  0mm 647.0 W/m2
15:55 79.0 °F /  26.1 °C 15.3 °F /  -9.3 °C 29.67in /  1004.6hPa NW 10.1mph /  16.3km/h 17.0mph /  27.4km/h 9% 0.00in /  0mm 628.0 W/m2
16:01 79.2 °F /  26.2 °C 18.0 °F /  -7.8 °C 29.67in /  1004.6hPa NW 4.0mph /  6.4km/h 14.0mph /  22.5km/h 10% 0.00in /  0mm 603.0 W/m2
16:06 79.5 °F /  26.4 °C 15.8 °F /  -9 °C 29.67in /  1004.6hPa WNW 4.9mph /  7.9km/h 13.0mph /  20.9km/h 9% 0.00in /  0mm 589.0 W/m2
16:11 79.3 °F /  26.3 °C 18.0 °F /  -7.8 °C 29.67in /  1004.6hPa WSW 8.1mph /  13km/h 17.0mph /  27.4km/h 10% 0.00in /  0mm 568.0 W/m2
16:16 79.0 °F /  26.1 °C 17.8 °F /  -7.9 °C 29.67in /  1004.6hPa NW 4.0mph /  6.4km/h 17.0mph /  27.4km/h 10% 0.00in /  0mm 550.0 W/m2
16:21 79.3 °F /  26.3 °C 15.6 °F /  -9.1 °C 29.66in /  1004.3hPa WNW 4.0mph /  6.4km/h 11.0mph /  17.7km/h 9% 0.00in /  0mm 533.0 W/m2
16:26 79.9 °F /  26.6 °C 16.0 °F /  -8.9 °C 29.67in /  1004.6hPa West 2.9mph /  4.7km/h 16.0mph /  25.7km/h 9% 0.00in /  0mm 519.0 W/m2
16:31 79.5 °F /  26.4 °C 18.1 °F /  -7.7 °C 29.67in /  1004.6hPa NW 4.9mph /  7.9km/h 18.0mph /  29km/h 10% 0.00in /  0mm 485.0 W/m2
16:36 78.4 °F /  25.8 °C 17.4 °F /  -8.1 °C 29.67in /  1004.6hPa West 8.9mph /  14.3km/h 18.0mph /  29km/h 10% 0.00in /  0mm 475.0 W/m2
16:41 78.1 °F /  25.6 °C 14.7 °F /  -9.6 °C 29.67in /  1004.6hPa West 15.0mph /  24.1km/h 23.0mph /  37km/h 9% 0.00in /  0mm 457.0 W/m2
16:47 77.7 °F /  25.4 °C 16.9 °F /  -8.4 °C 29.67in /  1004.6hPa West 8.1mph /  13km/h 15.0mph /  24.1km/h 10% 0.00in /  0mm 436.0 W/m2
16:52 77.7 °F /  25.4 °C 14.4 °F /  -9.8 °C 29.67in /  1004.6hPa WNW 6.9mph /  11.1km/h 19.0mph /  30.6km/h 9% 0.00in /  0mm 418.0 W/m2
16:57 77.7 °F /  25.4 °C 14.4 °F /  -9.8 °C 29.67in /  1004.6hPa WNW 11.0mph /  17.7km/h 25.0mph /  40.2km/h 9% 0.00in /  0mm 397.0 W/m2
17:02 77.4 °F /  25.2 °C 14.2 °F /  -9.9 °C 29.67in /  1004.6hPa WSW 12.1mph /  19.5km/h 23.0mph /  37km/h 9% 0.00in /  0mm 374.0 W/m2
17:07 77.2 °F /  25.1 °C 14.0 °F /  -10 °C 29.67in /  1004.6hPa WNW 2.9mph /  4.7km/h 9.0mph /  14.5km/h 9% 0.00in /  0mm 353.0 W/m2
17:12 77.2 °F /  25.1 °C 14.0 °F /  -10 °C 29.67in /  1004.6hPa West 6.9mph /  11.1km/h 13.0mph /  20.9km/h 9% 0.00in /  0mm 336.0 W/m2
17:17 77.4 °F /  25.2 °C 14.2 °F /  -9.9 °C 29.67in /  1004.6hPa WNW 2.0mph /  3.2km/h 11.0mph /  17.7km/h 9% 0.00in /  0mm 313.0 W/m2
17:22 77.7 °F /  25.4 °C 14.4 °F /  -9.8 °C 29.67in /  1004.6hPa WNW 4.9mph /  7.9km/h 8.0mph /  12.9km/h 9% 0.00in /  0mm 294.0 W/m2
17:27 77.5 °F /  25.3 °C 14.2 °F /  -9.9 °C 29.68in /  1005hPa WNW 8.9mph /  14.3km/h 12.0mph /  19.3km/h 9% 0.00in /  0mm 274.0 W/m2
17:32 76.8 °F /  24.9 °C 13.6 °F /  -10.2 °C 29.68in /  1005hPa SW 8.1mph /  13km/h 9.0mph /  14.5km/h 9% 0.00in /  0mm 253.0 W/m2
17:38 76.3 °F /  24.6 °C 13.3 °F /  -10.4 °C 29.68in /  1005hPa NW 6.0mph /  9.7km/h 16.0mph /  25.7km/h 9% 0.00in /  0mm 236.0 W/m2
17:43 75.9 °F /  24.4 °C 13.1 °F /  -10.5 °C 29.68in /  1005hPa NW 4.0mph /  6.4km/h 11.0mph /  17.7km/h 9% 0.00in /  0mm 216.0 W/m2
17:48 75.9 °F /  24.4 °C 13.1 °F /  -10.5 °C 29.68in /  1005hPa West 2.0mph /  3.2km/h 6.0mph /  9.7km/h 9% 0.00in /  0mm 197.0 W/m2
17:53 75.9 °F /  24.4 °C 10.4 °F /  -12 °C 29.68in /  1005hPa Calm   10.0mph /  16.1km/h 8% 0.00in /  0mm 178.0 W/m2
17:58 75.7 °F /  24.3 °C 10.2 °F /  -12.1 °C 29.68in /  1005hPa NW 4.0mph /  6.4km/h 11.0mph /  17.7km/h 8% 0.00in /  0mm 156.0 W/m2
18:03 75.6 °F /  24.2 °C 10.0 °F /  -12.2 °C 29.68in /  1005hPa WSW 2.9mph /  4.7km/h 10.0mph /  16.1km/h 8% 0.00in /  0mm 135.0 W/m2
18:08 75.0 °F /  23.9 °C 9.7 °F /  -12.4 °C 29.68in /  1005hPa WSW 2.9mph /  4.7km/h 10.0mph /  16.1km/h 8% 0.00in /  0mm 114.0 W/m2
18:13 74.7 °F /  23.7 °C 9.5 °F /  -12.5 °C 29.68in /  1005hPa West 2.0mph /  3.2km/h 8.0mph /  12.9km/h 8% 0.00in /  0mm 44.0 W/m2
18:18 73.9 °F /  23.3 °C 9.0 °F /  -12.8 °C 29.69in /  1005.3hPa NW 2.9mph /  4.7km/h 13.0mph /  20.9km/h 8% 0.00in /  0mm 26.0 W/m2
18:24 73.0 °F /  22.8 °C 10.9 °F /  -11.7 °C 29.69in /  1005.3hPa WNW 2.9mph /  4.7km/h 6.0mph /  9.7km/h 9% 0.00in /  0mm 23.0 W/m2
18:29 72.7 °F /  22.6 °C 10.6 °F /  -11.9 °C 29.69in /  1005.3hPa West 6.0mph /  9.7km/h 6.0mph /  9.7km/h 9% 0.00in /  0mm 19.0 W/m2
18:34 72.0 °F /  22.2 °C 12.4 °F /  -10.9 °C 29.69in /  1005.3hPa WSW 4.9mph /  7.9km/h 9.0mph /  14.5km/h 10% 0.00in /  0mm 16.0 W/m2
18:39 71.6 °F /  22 °C 12.2 °F /  -11 °C 29.69in /  1005.3hPa NW 2.9mph /  4.7km/h 9.0mph /  14.5km/h 10% 0.00in /  0mm 12.0 W/m2
18:44 71.2 °F /  21.8 °C 11.8 °F /  -11.2 °C 29.69in /  1005.3hPa WNW 2.9mph /  4.7km/h 6.0mph /  9.7km/h 10% 0.00in /  0mm 9.0 W/m2
18:49 70.9 °F /  21.6 °C 9.1 °F /  -12.7 °C 29.69in /  1005.3hPa NW 0.9mph /  1.4km/h 8.0mph /  12.9km/h 9% 0.00in /  0mm 5.0 W/m2
18:54 70.5 °F /  21.4 °C 9.0 °F /  -12.8 °C 29.69in /  1005.3hPa Calm   4.0mph /  6.4km/h 9% 0.00in /  0mm 0.0 W/m2
18:59 70.2 °F /  21.2 °C 8.6 °F /  -13 °C 29.69in /  1005.3hPa West 8.1mph /  13km/h 8.1mph /  13km/h 9% 0.00in /  0mm 0.0 W/m2
19:04 69.6 °F /  20.9 °C 8.2 °F /  -13.2 °C 29.70in /  1005.6hPa West 0.9mph /  1.4km/h 5.0mph /  8km/h 9% 0.00in /  0mm 0.0 W/m2
19:09 69.4 °F /  20.8 °C 8.1 °F /  -13.3 °C 29.70in /  1005.6hPa WNW 2.9mph /  4.7km/h 8.0mph /  12.9km/h 9% 0.00in /  0mm 0.0 W/m2
19:15 69.1 °F /  20.6 °C 10.2 °F /  -12.1 °C 29.70in /  1005.6hPa NNW 6.0mph /  9.7km/h 6.0mph /  9.7km/h 10% 0.00in /  0mm 0.0 W/m2
19:20 68.7 °F /  20.4 °C 9.9 °F /  -12.3 °C 29.70in /  1005.6hPa Calm   7.0mph /  11.3km/h 10% 0.00in /  0mm 0.0 W/m2
19:25 68.5 °F /  20.3 °C 9.9 °F /  -12.3 °C 29.70in /  1005.6hPa WNW 2.0mph /  3.2km/h 3.0mph /  4.8km/h 10% 0.00in /  0mm 0.0 W/m2
19:31 68.2 °F /  20.1 °C 11.7 °F /  -11.3 °C 29.70in /  1005.6hPa Calm   8.0mph /  12.9km/h 11% 0.00in /  0mm 0.0 W/m2
19:36 67.8 °F /  19.9 °C 11.3 °F /  -11.5 °C 29.70in /  1005.6hPa Calm   6.0mph /  9.7km/h 11% 0.00in /  0mm 0.0 W/m2
19:41 67.6 °F /  19.8 °C 11.3 °F /  -11.5 °C 29.71in /  1006hPa Calm   2.0mph /  3.2km/h 11% 0.00in /  0mm 0.0 W/m2
19:46 67.5 °F /  19.7 °C 14.9 °F /  -9.5 °C 29.71in /  1006hPa WSW 0.9mph /  1.4km/h 6.0mph /  9.7km/h 13% 0.00in /  0mm 0.0 W/m2
19:51 66.9 °F /  19.4 °C 20.7 °F /  -6.3 °C 29.71in /  1006hPa West 4.9mph /  7.9km/h 7.0mph /  11.3km/h 17% 0.00in /  0mm 0.0 W/m2
19:56 66.6 °F /  19.2 °C 21.7 °F /  -5.7 °C 29.72in /  1006.3hPa Calm   1.0mph /  1.6km/h 18% 0.00in /  0mm 0.0 W/m2
20:01 66.2 °F /  19 °C 22.6 °F /  -5.2 °C 29.72in /  1006.3hPa Calm   2.0mph /  3.2km/h 19% 0.00in /  0mm 0.0 W/m2
20:06 65.8 °F /  18.8 °C 22.5 °F /  -5.3 °C 29.72in /  1006.3hPa Calm     19% 0.00in /  0mm 0.0 W/m2
20:11 65.5 °F /  18.6 °C 22.1 °F /  -5.5 °C 29.72in /  1006.3hPa Calm   2.0mph /  3.2km/h 19% 0.00in /  0mm 0.0 W/m2
20:16 65.1 °F /  18.4 °C 23.0 °F /  -5 °C 29.72in /  1006.3hPa Calm     20% 0.00in /  0mm 0.0 W/m2
20:21 64.8 °F /  18.2 °C 22.8 °F /  -5.1 °C 29.73in /  1006.7hPa Calm   3.0mph /  4.8km/h 20% 0.00in /  0mm 0.0 W/m2
20:26 64.6 °F /  18.1 °C 22.6 °F /  -5.2 °C 29.73in /  1006.7hPa West 6.0mph /  9.7km/h 6.0mph /  9.7km/h 20% 0.00in /  0mm 0.0 W/m2
20:31 64.2 °F /  17.9 °C 22.3 °F /  -5.4 °C 29.73in /  1006.7hPa Calm     20% 0.00in /  0mm 0.0 W/m2
20:36 64.0 °F /  17.8 °C 23.4 °F /  -4.8 °C 29.74in /  1007hPa West 0.9mph /  1.4km/h 2.0mph /  3.2km/h 21% 0.00in /  0mm 0.0 W/m2
20:42 63.7 °F /  17.6 °C 24.1 °F /  -4.4 °C 29.74in /  1007hPa Calm   2.0mph /  3.2km/h 22% 0.00in /  0mm 0.0 W/m2
20:47 63.3 °F /  17.4 °C 23.9 °F /  -4.5 °C 29.74in /  1007hPa SW 0.9mph /  1.4km/h 7.0mph /  11.3km/h 22% 0.00in /  0mm 0.0 W/m2
20:57 62.6 °F /  17 °C 24.3 °F /  -4.3 °C 29.74in /  1007hPa WNW 0.9mph /  1.4km/h 2.0mph /  3.2km/h 23% 0.00in /  0mm 0.0 W/m2
21:02 62.2 °F /  16.8 °C 23.9 °F /  -4.5 °C 29.74in /  1007hPa Calm   1.0mph /  1.6km/h 23% 0.00in /  0mm 0.0 W/m2
21:07 62.1 °F /  16.7 °C 23.9 °F /  -4.5 °C 29.74in /  1007hPa Calm   1.0mph /  1.6km/h 23% 0.00in /  0mm 0.0 W/m2
21:12 61.9 °F /  16.6 °C 24.6 °F /  -4.1 °C 29.74in /  1007hPa Calm   1.0mph /  1.6km/h 24% 0.00in /  0mm 0.0 W/m2
21:17 61.5 °F /  16.4 °C 24.4 °F /  -4.2 °C 29.75in /  1007.3hPa Calm     24% 0.00in /  0mm 0.0 W/m2
21:22 61.3 °F /  16.3 °C 24.3 °F /  -4.3 °C 29.75in /  1007.3hPa Calm   2.0mph /  3.2km/h 24% 0.00in /  0mm 0.0 W/m2
21:27 61.2 °F /  16.2 °C 24.1 °F /  -4.4 °C 29.75in /  1007.3hPa Calm     24% 0.00in /  0mm 0.0 W/m2
21:32 61.0 °F /  16.1 °C 23.9 °F /  -4.5 °C 29.75in /  1007.3hPa Calm   3.0mph /  4.8km/h 24% 0.00in /  0mm 0.0 W/m2
21:38 60.6 °F /  15.9 °C 24.6 °F /  -4.1 °C 29.75in /  1007.3hPa Calm     25% 0.00in /  0mm 0.0 W/m2
21:43 60.4 °F /  15.8 °C 24.4 °F /  -4.2 °C 29.75in /  1007.3hPa Calm     25% 0.00in /  0mm 0.0 W/m2
21:48 60.3 °F /  15.7 °C 24.3 °F /  -4.3 °C 29.75in /  1007.3hPa Calm     25% 0.00in /  0mm 0.0 W/m2
21:53 59.9 °F /  15.5 °C 25.0 °F /  -3.9 °C 29.75in /  1007.3hPa Calm     26% 0.00in /  0mm 0.0 W/m2
21:58 59.7 °F /  15.4 °C 24.8 °F /  -4 °C 29.75in /  1007.3hPa Calm     26% 0.00in /  0mm 0.0 W/m2
22:03 59.4 °F /  15.2 °C 24.4 °F /  -4.2 °C 29.75in /  1007.3hPa Calm     26% 0.00in /  0mm 0.0 W/m2
22:08 59.2 °F /  15.1 °C 24.3 °F /  -4.3 °C 29.75in /  1007.3hPa Calm     26% 0.00in /  0mm 0.0 W/m2
22:13 58.8 °F /  14.9 °C 25.0 °F /  -3.9 °C 29.75in /  1007.3hPa Calm     27% 0.00in /  0mm 0.0 W/m2
22:19 58.6 °F /  14.8 °C 24.8 °F /  -4 °C 29.76in /  1007.7hPa Calm     27% 0.00in /  0mm 0.0 W/m2
22:25 58.5 °F /  14.7 °C 24.6 °F /  -4.1 °C 29.75in /  1007.3hPa Calm     27% 0.00in /  0mm 0.0 W/m2
22:30 58.1 °F /  14.5 °C 25.2 °F /  -3.8 °C 29.75in /  1007.3hPa Calm     28% 0.00in /  0mm 0.0 W/m2
22:35 57.9 °F /  14.4 °C 25.0 °F /  -3.9 °C 29.75in /  1007.3hPa Calm     28% 0.00in /  0mm 0.0 W/m2
22:40 57.6 °F /  14.2 °C 24.6 °F /  -4.1 °C 29.75in /  1007.3hPa Calm     28% 0.00in /  0mm 0.0 W/m2
22:45 57.4 °F /  14.1 °C 25.3 °F /  -3.7 °C 29.75in /  1007.3hPa Calm     29% 0.00in /  0mm 0.0 W/m2
22:50 57.0 °F /  13.9 °C 25.0 °F /  -3.9 °C 29.76in /  1007.7hPa Calm     29% 0.00in /  0mm 0.0 W/m2
22:55 56.8 °F /  13.8 °C 25.0 °F /  -3.9 °C 29.76in /  1007.7hPa Calm     29% 0.00in /  0mm 0.0 W/m2
23:00 56.5 °F /  13.6 °C 24.6 °F /  -4.1 °C 29.76in /  1007.7hPa Calm     29% 0.00in /  0mm 0.0 W/m2
23:06 56.3 °F /  13.5 °C 25.3 °F /  -3.7 °C 29.76in /  1007.7hPa Calm     30% 0.00in /  0mm 0.0 W/m2
23:11 56.1 °F /  13.4 °C 25.2 °F /  -3.8 °C 29.76in /  1007.7hPa Calm     30% 0.00in /  0mm 0.0 W/m2
23:16 55.9 °F /  13.3 °C 25.0 °F /  -3.9 °C 29.76in /  1007.7hPa Calm     30% 0.00in /  0mm 0.0 W/m2
23:21 55.8 °F /  13.2 °C 24.8 °F /  -4 °C 29.76in /  1007.7hPa Calm     30% 0.00in /  0mm 0.0 W/m2
23:26 55.6 °F /  13.1 °C 25.3 °F /  -3.7 °C 29.76in /  1007.7hPa Calm     31% 0.00in /  0mm 0.0 W/m2
23:31 55.4 °F /  13 °C 26.1 °F /  -3.3 °C 29.76in /  1007.7hPa Calm     32% 0.00in /  0mm 0.0 W/m2
23:36 55.0 °F /  12.8 °C 25.7 °F /  -3.5 °C 29.76in /  1007.7hPa Calm     32% 0.00in /  0mm 0.0 W/m2
23:41 54.9 °F /  12.7 °C 26.2 °F /  -3.2 °C 29.77in /  1008hPa Calm     33% 0.00in /  0mm 0.0 W/m2
23:46 54.7 °F /  12.6 °C 26.1 °F /  -3.3 °C 29.77in /  1008hPa Calm     33% 0.00in /  0mm 0.0 W/m2
23:51 54.7 °F /  12.6 °C 26.8 °F /  -2.9 °C 29.77in /  1008hPa Calm     34% 0.00in /  0mm 0.0 W/m2
23:57 54.3 °F /  12.4 °C 27.3 °F /  -2.6 °C 29.77in /  1008hPa Calm     35% 0.00in /  0mm 0.0 W/m2
Olympia, Windhoek, Namibia
Compliments of Weather Underground - 3.25 mb